Time;durP1;ratioP1;P1;durP2;ratioP2;P2;SDS_P1;SDS_P2;PMS_P1;PMS_P2;Temp;Humidity;BMP_temperature;BMP_pressure;BME280_temperature;BME280_humidity;BME280_pressure;Samples;Min_cycle;Max_cycle;Signal;HPM_P1;HPM_P2
2023/09/25 00:00:31;;;;;;;7.53;5.88;;;;;;;11.47;100.00;102094.56;5085567;28;20040;-66
2023/09/25 00:03:00;;;;;;;8.50;6.05;;;;;;;11.45;100.00;102093.78;5069464;28;20052;-65
2023/09/25 00:05:28;;;;;;;12.10;6.30;;;;;;;11.46;100.00;102089.34;5084083;28;20505;-66
2023/09/25 00:07:56;;;;;;;7.80;6.75;;;;;;;11.41;100.00;102090.41;5067042;28;20079;-65
2023/09/25 00:10:24;;;;;;;14.15;6.75;;;;;;;11.41;100.00;102092.19;5086836;28;20064;-67
2023/09/25 00:12:51;;;;;;;8.07;6.35;;;;;;;11.37;100.00;102086.16;5085721;28;20158;-65
2023/09/25 00:15:18;;;;;;;7.35;5.57;;;;;;;11.35;100.00;102088.00;5085593;28;20085;-65
2023/09/25 00:17:46;;;;;;;7.35;5.90;;;;;;;11.33;100.00;102073.16;5088025;28;20067;-66
2023/09/25 00:20:14;;;;;;;6.85;6.15;;;;;;;11.31;100.00;102083.75;5084864;28;20063;-66
2023/09/25 00:22:41;;;;;;;12.50;6.90;;;;;;;11.29;100.00;102080.31;5086718;28;20139;-66
2023/09/25 00:25:09;;;;;;;8.30;6.80;;;;;;;11.27;100.00;102086.59;5065138;28;20051;-66
2023/09/25 00:27:36;;;;;;;10.20;6.72;;;;;;;11.25;100.00;102086.63;5086994;28;20111;-66
2023/09/25 00:30:08;;;;;;;9.07;6.50;;;;;;;11.26;100.00;102083.09;5068867;28;20068;-66
2023/09/25 00:32:35;;;;;;;9.65;6.65;;;;;;;11.23;100.00;102075.28;5067596;28;20354;-65
2023/09/25 00:35:09;;;;;;;10.43;7.00;;;;;;;11.23;100.00;102083.19;5061541;28;20532;-65
2023/09/25 00:37:37;;;;;;;7.75;6.60;;;;;;;11.22;100.00;102083.25;5080296;28;20051;-67
2023/09/25 00:40:13;;;;;;;9.20;6.68;;;;;;;11.20;100.00;102085.09;5082137;28;20593;-65
2023/09/25 00:42:47;;;;;;;;;;;;;;;11.18;100.00;102084.31;5086037;28;20493;-66
2023/09/25 00:45:15;;;;;;;10.88;7.05;;;;;;;11.19;100.00;102083.38;5066867;28;20051;-65
2023/09/25 00:47:43;;;;;;;11.80;6.90;;;;;;;11.16;100.00;102079.91;5086177;28;20460;-65
2023/09/25 00:50:10;;;;;;;8.82;6.40;;;;;;;11.16;100.00;102084.34;5084039;28;20130;-66
2023/09/25 00:52:42;;;;;;;7.63;6.70;;;;;;;11.15;100.00;102083.47;5084722;28;20056;-65
2023/09/25 00:55:11;;;;;;;10.18;7.47;;;;;;;11.14;100.00;102086.19;5063571;28;20044;-67
2023/09/25 00:57:38;;;;;;;7.68;6.88;;;;;;;11.10;100.00;102082.81;5083445;28;20079;-66
2023/09/25 01:00:17;;;;;;;10.43;7.22;;;;;;;11.09;100.00;102078.44;5085215;28;20143;-66
2023/09/25 01:02:46;;;;;;;11.80;7.43;;;;;;;11.09;100.00;102085.50;5087329;28;20048;-66
2023/09/25 01:05:13;;;;;;;8.27;7.13;;;;;;;11.07;100.00;102082.06;5079243;28;20134;-67
2023/09/25 01:07:41;;;;;;;7.95;6.90;;;;;;;11.05;100.00;102071.56;5067373;28;20473;-66
2023/09/25 01:10:14;;;;;;;9.55;6.88;;;;;;;11.05;100.00;102074.22;5081928;28;20505;-65
2023/09/25 01:12:45;;;;;;;8.18;7.38;;;;;;;11.05;100.00;102068.09;5078721;28;20447;-66
2023/09/25 01:15:15;;;;;;;8.20;7.40;;;;;;;11.03;100.00;102069.91;5083419;28;20047;-66
2023/09/25 01:17:43;;;;;;;7.85;6.70;;;;;;;10.99;100.00;102057.78;5087335;28;20548;-65
2023/09/25 01:20:15;;;;;;;8.95;6.78;;;;;;;10.95;100.00;102062.31;5056185;28;20470;-66
2023/09/25 01:22:44;;;;;;;8.88;6.13;;;;;;;10.95;100.00;102061.44;5082631;28;20044;-66
2023/09/25 01:25:12;;;;;;;8.68;6.90;;;;;;;10.95;100.00;102054.41;5062218;28;20075;-65
2023/09/25 01:27:40;;;;;;;7.35;6.65;;;;;;;10.94;100.00;102054.44;5080869;28;20098;-67
2023/09/25 01:30:10;;;;;;;8.30;6.72;;;;;;;10.94;100.00;102057.06;5083653;28;20048;-66
2023/09/25 01:32:38;;;;;;;9.85;7.57;;;;;;;10.90;100.00;102053.72;5082229;28;20147;-66
2023/09/25 01:35:12;;;;;;;8.85;6.75;;;;;;;10.89;100.00;102052.84;5079126;28;20072;-67
2023/09/25 01:37:40;;;;;;;11.65;7.07;;;;;;;10.87;100.00;102057.31;5082828;28;20147;-66
2023/09/25 01:40:11;;;;;;;8.68;7.25;;;;;;;10.86;100.00;102058.25;5043955;28;20604;-66
2023/09/25 01:42:42;;;;;;;8.15;7.00;;;;;;;10.86;100.00;102063.50;5083490;28;20051;-65
2023/09/25 01:45:11;;;;;;;7.97;6.72;;;;;;;10.85;100.00;102060.91;5083798;28;20140;-66
2023/09/25 01:47:40;;;;;;;11.38;7.13;;;;;;;10.83;100.00;102060.97;5087786;28;20083;-65
2023/09/25 01:50:11;;;;;;;8.93;6.72;;;;;;;10.80;100.00;102050.53;5082496;28;20131;-66
2023/09/25 01:52:40;;;;;;;9.82;7.80;;;;;;;10.80;100.00;102052.31;5085341;28;20116;-66
2023/09/25 01:55:07;;;;;;;7.50;6.80;;;;;;;10.79;100.00;102050.63;5085798;28;20564;-67
2023/09/25 01:57:35;;;;;;;8.10;7.30;;;;;;;10.78;100.00;102054.16;5066081;28;20056;-65
2023/09/25 02:00:09;;;;;;;11.52;8.18;;;;;;;10.77;100.00;102049.81;5050553;28;20085;-66
2023/09/25 02:02:37;;;;;;;10.25;8.07;;;;;;;10.74;100.00;102052.56;5068964;28;20156;-66
2023/09/25 02:05:07;;;;;;;10.85;8.20;;;;;;;10.73;100.00;102048.22;5090066;28;20131;-66
2023/09/25 02:07:35;;;;;;;8.52;7.03;;;;;;;10.73;100.00;102054.34;5086142;28;20091;-65
2023/09/25 02:10:03;;;;;;;10.93;7.22;;;;;;;10.73;100.00;102056.13;5084826;28;20517;-66
2023/09/25 02:12:30;;;;;;;9.63;7.38;;;;;;;10.72;100.00;102059.69;5082168;28;20140;-66
2023/09/25 02:15:00;;;;;;;11.38;8.20;;;;;;;10.70;100.00;102057.06;5068934;28;20047;-65
2023/09/25 02:17:29;;;;;;;10.13;7.22;;;;;;;10.67;100.00;102059.81;5070820;28;20108;-65
2023/09/25 02:20:08;;;;;;;9.90;7.35;;;;;;;10.65;100.00;102062.50;5084531;28;20048;-66
2023/09/25 02:22:35;;;;;;;10.82;7.53;;;;;;;10.62;100.00;102059.97;5088147;28;20207;-66
2023/09/25 02:25:03;;;;;;;8.23;7.28;;;;;;;10.59;100.00;102060.09;5083288;28;20136;-65
2023/09/25 02:27:30;;;;;;;8.70;7.53;;;;;;;10.58;100.00;102060.16;5060637;28;20052;-66
2023/09/25 02:29:58;;;;;;;7.95;7.15;;;;;;;10.57;100.00;102058.44;5086606;28;20053;-66
2023/09/25 02:32:25;;;;;;;12.68;8.20;;;;;;;10.56;100.00;102052.31;5089778;28;20112;-67
2023/09/25 02:34:52;;;;;;;9.20;8.10;;;;;;;10.57;100.00;102047.91;5068201;28;20135;-66
2023/09/25 02:37:19;;;;;;;10.27;7.65;;;;;;;10.56;100.00;102044.41;5086099;28;20564;-66
2023/09/25 02:39:47;;;;;;;15.30;8.05;;;;;;;10.55;100.00;102049.75;5066801;28;20131;-66
2023/09/25 02:42:14;;;;;;;10.40;7.78;;;;;;;10.53;100.00;102049.78;5085308;28;20087;-66
2023/09/25 02:44:41;;;;;;;9.68;7.95;;;;;;;10.51;100.00;102043.72;5086295;28;20079;-66
2023/09/25 02:47:09;;;;;;;11.48;8.32;;;;;;;10.51;100.00;102048.13;5087863;28;20097;-65
2023/09/25 02:49:36;;;;;;;9.35;8.45;;;;;;;10.47;100.00;102047.38;5069589;28;20170;-65
2023/09/25 02:52:03;;;;;;;11.88;8.55;;;;;;;10.45;100.00;102045.72;5085860;28;20044;-65
2023/09/25 02:54:31;;;;;;;18.70;8.25;;;;;;;10.43;100.00;102050.16;5086498;28;20078;-65
2023/09/25 02:56:58;;;;;;;9.40;7.85;;;;;;;10.39;100.00;102046.78;5088513;28;20040;-63
2023/09/25 02:59:25;;;;;;;8.02;7.22;;;;;;;10.38;100.00;102047.72;5070302;28;20059;-66
2023/09/25 03:01:52;;;;;;;9.55;7.93;;;;;;;10.37;100.00;102051.25;5071311;28;20075;-66
2023/09/25 03:04:21;;;;;;;7.78;6.97;;;;;;;10.36;100.00;102057.44;5069444;28;20048;-66
2023/09/25 03:06:48;;;;;;;8.88;7.15;;;;;;;10.34;100.00;102054.84;5087499;28;20048;-65
2023/09/25 03:09:16;;;;;;;12.07;8.10;;;;;;;10.31;100.00;102060.25;5083680;28;20044;-65
2023/09/25 03:11:43;;;;;;;12.35;8.23;;;;;;;10.30;100.00;102057.63;5088806;28;20166;-66
2023/09/25 03:14:10;;;;;;;11.02;8.25;;;;;;;10.28;100.00;102062.09;5089936;28;20055;-67
2023/09/25 03:16:39;;;;;;;10.90;7.65;;;;;;;10.28;100.00;102056.84;5088739;28;20596;-65
2023/09/25 03:19:07;;;;;;;9.85;7.65;;;;;;;10.26;100.00;102058.66;5067842;28;20121;-65
2023/09/25 03:21:34;;;;;;;9.02;7.70;;;;;;;10.23;100.00;102056.13;5084356;28;20138;-65
2023/09/25 03:24:01;;;;;;;9.60;8.57;;;;;;;10.24;100.00;102055.19;5070160;28;20084;-67
2023/09/25 03:26:29;;;;;;;10.55;7.80;;;;;;;10.21;100.00;102057.94;5085786;28;20134;-65
2023/09/25 03:28:56;;;;;;;10.82;8.38;;;;;;;10.19;100.00;102058.00;5084701;28;20087;-65
2023/09/25 03:31:23;;;;;;;12.35;8.38;;;;;;;10.18;100.00;102050.13;5089095;28;20155;-66
2023/09/25 03:33:51;;;;;;;8.50;7.60;;;;;;;10.17;100.00;102058.94;5089365;28;20095;-65
2023/09/25 03:36:18;;;;;;;11.90;9.23;;;;;;;10.13;100.00;102056.44;5087926;28;20078;-65
2023/09/25 03:38:45;;;;;;;13.55;8.52;;;;;;;10.12;100.00;102057.31;5088081;28;20782;-65
2023/09/25 03:41:13;;;;;;;9.80;7.75;;;;;;;10.11;100.00;102055.59;5086059;28;20102;-65
2023/09/25 03:43:40;;;;;;;11.07;8.35;;;;;;;10.10;100.00;102051.25;5086785;28;20501;-65
2023/09/25 03:46:07;;;;;;;9.80;8.50;;;;;;;10.08;100.00;102055.69;5086291;28;20095;-65
2023/09/25 03:48:34;;;;;;;10.63;8.70;;;;;;;10.08;100.00;102049.59;5087915;28;20086;-64
2023/09/25 03:51:02;;;;;;;21.70;8.52;;;;;;;10.06;100.00;102054.91;5072732;28;20139;-66
2023/09/25 03:53:29;;;;;;;9.48;8.07;;;;;;;10.08;100.00;102054.84;5090641;28;20147;-65
2023/09/25 03:55:56;;;;;;;9.20;8.05;;;;;;;10.06;100.00;102056.69;5086666;28;20146;-65
2023/09/25 03:58:24;;;;;;;11.57;8.15;;;;;;;10.06;100.00;102054.06;5088801;28;20135;-66
2023/09/25 04:00:52;;;;;;;10.70;8.77;;;;;;;10.05;100.00;102047.09;5088987;28;20134;-65
2023/09/25 04:03:20;;;;;;;11.43;8.95;;;;;;;10.03;100.00;102052.38;5072607;28;20493;-65
2023/09/25 04:05:47;;;;;;;12.48;8.13;;;;;;;10.01;100.00;102051.56;5084077;28;20047;-66
2023/09/25 04:08:14;;;;;;;11.52;8.77;;;;;;;9.98;100.00;102050.81;5088698;28;20107;-66
2023/09/25 04:10:43;;;;;;;9.90;8.90;;;;;;;9.96;100.00;102050.88;5085460;28;20060;-65
2023/09/25 04:13:11;;;;;;;10.25;8.23;;;;;;;9.95;100.00;102049.16;5086089;28;21965;-67
2023/09/25 04:15:38;;;;;;;11.65;9.15;;;;;;;9.94;100.00;102052.69;5068138;28;20523;-65
2023/09/25 04:18:06;;;;;;;12.05;9.70;;;;;;;9.93;100.00;102045.72;5068854;28;20044;-65
2023/09/25 04:20:34;;;;;;;9.30;8.10;;;;;;;9.92;100.00;102051.03;5083530;28;20052;-67
2023/09/25 04:23:22;;;;;;;13.88;9.38;;;;;;;9.87;100.00;102045.94;5084915;28;20584;-65
2023/09/25 04:25:51;;;;;;;11.35;9.23;;;;;;;9.85;100.00;102039.84;5081070;28;20040;-65
2023/09/25 04:28:20;;;;;;;12.05;9.60;;;;;;;9.84;100.00;102046.88;5064319;28;20147;-65
2023/09/25 04:30:47;;;;;;;10.52;9.48;;;;;;;9.83;100.00;102042.53;5084199;28;20055;-67
2023/09/25 04:33:15;;;;;;;9.57;8.57;;;;;;;9.84;100.00;102049.50;5084157;28;20143;-65
2023/09/25 04:35:42;;;;;;;9.45;8.52;;;;;;;9.82;100.00;102050.47;5047880;28;20721;-66
2023/09/25 04:38:10;;;;;;;12.75;9.43;;;;;;;9.84;100.00;102053.91;5080936;28;20075;-66
2023/09/25 04:40:37;;;;;;;10.43;9.13;;;;;;;9.84;100.00;102048.66;5070575;28;20123;-67
2023/09/25 04:43:04;;;;;;;11.13;9.95;;;;;;;9.84;100.00;102048.66;5088453;28;20048;-65
2023/09/25 04:45:32;;;;;;;11.05;9.45;;;;;;;9.81;100.00;102049.59;5087935;28;20183;-65
2023/09/25 04:48:00;;;;;;;13.05;10.27;;;;;;;9.83;100.00;102052.19;5082152;28;20257;-67
2023/09/25 04:50:27;;;;;;;10.25;9.18;;;;;;;9.83;100.00;102053.06;5089546;28;20076;-67
2023/09/25 04:52:55;;;;;;;10.93;8.95;;;;;;;9.83;100.00;102052.19;5055045;28;20093;-66
2023/09/25 04:55:22;;;;;;;13.60;10.35;;;;;;;9.85;100.00;102050.34;5052868;28;20056;-65
2023/09/25 04:57:50;;;;;;;10.35;9.32;;;;;;;9.85;100.00;102050.34;5066614;28;20058;-66
2023/09/25 05:00:18;;;;;;;9.85;8.85;;;;;;;9.84;100.00;102054.75;5085733;28;20076;-65
2023/09/25 05:02:47;;;;;;;12.85;10.25;;;;;;;9.86;100.00;102052.97;5085188;28;20056;-66
2023/09/25 05:05:15;;;;;;;11.23;9.50;;;;;;;9.88;100.00;102056.38;5085307;28;20366;-67
2023/09/25 05:07:44;;;;;;;10.68;9.02;;;;;;;9.88;100.00;102048.50;5088238;28;20469;-64
2023/09/25 05:10:13;;;;;;;10.25;9.30;;;;;;;9.91;100.00;102050.19;5086405;28;20463;-66
2023/09/25 05:12:42;;;;;;;11.27;9.35;;;;;;;9.92;100.00;102051.88;5079886;28;20127;-67
2023/09/25 05:15:11;;;;;;;11.27;9.00;;;;;;;9.95;100.00;102062.31;5063473;28;20070;-67
2023/09/25 05:17:41;;;;;;;14.93;10.07;;;;;;;9.98;100.00;102061.34;5062783;28;20048;-65
2023/09/25 05:20:11;;;;;;;12.05;8.88;;;;;;;9.99;100.00;102053.38;5082511;28;20074;-59
2023/09/25 05:22:39;;;;;;;10.32;9.32;;;;;;;10.04;100.00;102062.00;5062851;28;20065;-58
2023/09/25 05:25:08;;;;;;;11.70;9.32;;;;;;;10.05;100.00;102062.88;5083960;28;20139;-59
2023/09/25 05:27:36;;;;;;;11.98;8.85;;;;;;;10.09;100.00;102060.06;5074185;28;20094;-60
2023/09/25 05:30:05;;;;;;;15.27;9.02;;;;;;;10.11;100.00;102058.25;5081768;28;20078;-59
2023/09/25 05:32:33;;;;;;;12.50;9.05;;;;;;;10.16;100.00;102060.72;5079210;28;20052;-58
2023/09/25 05:35:01;;;;;;;10.95;9.70;;;;;;;10.19;100.00;102065.03;5076909;28;20045;-61
2023/09/25 05:37:28;;;;;;;11.35;9.60;;;;;;;10.23;100.00;102061.38;5081360;28;20063;-58
2023/09/25 05:39:55;;;;;;;9.77;8.77;;;;;;;10.27;100.00;102060.41;5077783;28;20052;-56
2023/09/25 05:42:22;;;;;;;10.77;9.52;;;;;;;10.33;100.00;102065.44;5080805;28;20130;-57
2023/09/25 05:44:50;;;;;;;11.50;8.75;;;;;;;10.39;100.00;102065.22;5079931;28;20135;-59
2023/09/25 05:47:17;;;;;;;11.43;10.23;;;;;;;10.44;100.00;102072.94;5083196;28;20140;-58
2023/09/25 05:49:45;;;;;;;11.80;9.50;;;;;;;10.47;100.00;102068.44;5059887;28;20048;-58
2023/09/25 05:52:12;;;;;;;13.48;9.57;;;;;;;10.56;100.00;102060.22;5081829;28;20047;-59
2023/09/25 05:54:40;;;;;;;10.50;9.13;;;;;;;10.65;100.00;102065.16;5083300;28;20098;-59
2023/09/25 05:57:08;;;;;;;13.70;9.70;;;;;;;10.72;100.00;102059.69;5081115;28;20040;-60
2023/09/25 05:59:35;;;;;;;13.80;9.40;;;;;;;10.78;100.00;102054.16;5082962;28;20060;-57
2023/09/25 06:02:03;;;;;;;13.13;9.65;;;;;;;10.84;100.00;102061.84;5084075;28;20062;-58
2023/09/25 06:04:35;;;;;;;12.18;9.15;;;;;;;10.89;100.00;102062.50;5082611;28;20052;-58
2023/09/25 06:07:03;;;;;;;10.88;9.20;;;;;;;10.98;100.00;102056.91;5084013;28;20059;-55
2023/09/25 06:09:31;;;;;;;10.95;9.32;;;;;;;11.02;100.00;102061.13;5063656;28;20111;-59
2023/09/25 06:11:59;;;;;;;11.32;9.52;;;;;;;11.08;100.00;102053.03;5077113;28;20127;-59
2023/09/25 06:14:29;;;;;;;12.43;9.30;;;;;;;11.20;100.00;102058.72;5082202;28;20048;-60
2023/09/25 06:16:59;;;;;;;11.02;9.38;;;;;;;11.29;100.00;102059.22;5084738;28;20071;-57
2023/09/25 06:19:26;;;;;;;12.50;10.23;;;;;;;11.38;100.00;102058.00;5081427;28;20066;-59
2023/09/25 06:21:54;;;;;;;15.30;10.18;;;;;;;11.47;100.00;102054.16;5073653;28;20044;-57
2023/09/25 06:24:21;;;;;;;12.25;9.73;;;;;;;11.57;100.00;102061.66;5065193;28;20055;-56
2023/09/25 06:26:49;;;;;;;10.07;8.75;;;;;;;11.64;100.00;102063.09;5078741;28;20120;-59
2023/09/25 06:29:17;;;;;;;11.27;8.82;;;;;;;11.76;100.00;102056.47;5076537;28;20127;-58
2023/09/25 06:31:44;;;;;;;9.90;8.70;;;;;;;11.85;100.00;102055.28;5078368;28;20081;-59
2023/09/25 06:34:27;;;;;;;18.48;8.10;;;;;;;11.89;100.00;102063.00;5078156;28;20052;-59
2023/09/25 06:36:54;;;;;;;11.35;8.88;;;;;;;12.00;100.00;102056.41;5084778;28;20040;-57
2023/09/25 06:39:23;;;;;;;10.38;8.70;;;;;;;12.04;100.00;102061.50;5082913;28;20698;-59
2023/09/25 06:41:50;;;;;;;13.18;8.18;;;;;;;12.12;100.00;102058.53;5063603;28;20259;-57
2023/09/25 06:44:19;;;;;;;9.45;8.13;;;;;;;12.19;100.00;102059.13;5060662;28;20063;-61
2023/09/25 06:46:48;;;;;;;9.93;7.72;;;;;;;12.20;100.00;102063.47;5047700;28;20044;-59
2023/09/25 06:49:17;;;;;;;11.75;7.55;;;;;;;12.30;100.00;102056.91;5081326;28;20066;-56
2023/09/25 06:51:44;;;;;;;8.45;7.32;;;;;;;12.40;100.00;102055.56;5077776;28;20052;-59
2023/09/25 06:54:12;;;;;;;9.48;7.25;;;;;;;12.52;100.00;102056.78;5083945;28;20047;-71
2023/09/25 06:56:40;;;;;;;11.38;7.88;;;;;;;12.64;100.00;102054.47;5080899;28;20052;-62
2023/09/25 06:59:07;;;;;;;9.60;7.03;;;;;;;12.62;100.00;102052.84;5078593;28;20132;-60
2023/09/25 07:01:35;;;;;;;14.30;8.00;;;;;;;12.74;100.00;102049.63;5085813;28;20071;-61
2023/09/25 07:04:02;;;;;;;12.50;7.47;;;;;;;12.85;100.00;102051.78;5070102;28;20139;-60
2023/09/25 07:06:30;;;;;;;12.77;8.35;;;;;;;12.96;100.00;102046.00;5082670;28;20075;-63
2023/09/25 07:08:57;;;;;;;9.88;7.05;;;;;;;13.13;100.00;102044.28;5083909;28;20052;-62
2023/09/25 07:11:24;;;;;;;9.90;8.00;;;;;;;13.28;100.00;102044.53;5084349;28;20088;-62
2023/09/25 07:13:51;;;;;;;10.32;7.90;;;;;;;13.40;100.00;102041.31;5083218;28;20054;-63
2023/09/25 07:16:19;;;;;;;9.68;7.57;;;;;;;13.38;100.00;102049.31;5082120;28;20040;-61
2023/09/25 07:18:47;;;;;;;14.32;7.53;;;;;;;13.47;100.00;102044.53;5079579;28;20102;-61
2023/09/25 07:21:15;;;;;;;11.30;7.32;;;;;;;13.62;100.00;102047.25;5080539;28;20062;-62
2023/09/25 07:23:43;;;;;;;8.18;7.38;;;;;;;13.66;100.00;102056.78;5083728;28;20056;-61
2023/09/25 07:26:10;;;;;;;10.10;7.47;;;;;;;13.63;100.00;102056.06;5083438;28;20132;-60
2023/09/25 07:28:37;;;;;;;11.32;7.57;;;;;;;13.76;99.51;102051.88;5083340;28;20054;-61
2023/09/25 07:31:05;;;;;;;7.72;6.28;;;;;;;13.92;99.42;102058.13;5080678;28;20066;-61
2023/09/25 07:33:34;;;;;;;7.93;7.15;;;;;;;13.99;98.24;102057.81;5086262;28;20131;-63
2023/09/25 07:36:03;;;;;;;12.02;7.15;;;;;;;14.03;97.72;102059.38;5080248;28;20089;-62
2023/09/25 07:38:33;;;;;;;11.10;6.75;;;;;;;14.13;97.13;102060.59;5084787;28;20040;-62
2023/09/25 07:41:01;;;;;;;14.02;7.45;;;;;;;14.31;96.33;102064.97;5084103;28;20060;-61
2023/09/25 07:43:29;;;;;;;9.30;6.47;;;;;;;14.50;95.88;102067.56;5082248;28;20056;-62
2023/09/25 07:46:01;;;;;;;10.70;6.85;;;;;;;14.63;94.96;102062.44;5085291;28;20148;-61
2023/09/25 07:48:30;;;;;;;11.10;7.05;;;;;;;14.77;93.83;102057.31;5088759;28;20056;-62
2023/09/25 07:50:58;;;;;;;7.72;6.30;;;;;;;14.72;93.74;102059.31;5084479;28;20514;-62
2023/09/25 07:53:28;;;;;;;7.85;6.30;;;;;;;14.83;93.20;102061.41;5087024;28;20522;-62
2023/09/25 07:55:56;;;;;;;16.45;6.72;;;;;;;14.86;93.19;102046.19;5082041;28;20056;-61
2023/09/25 07:58:24;;;;;;;12.35;6.22;;;;;;;15.08;93.27;102042.34;5066680;28;20040;-60
2023/09/25 08:00:55;;;;;;;12.32;6.32;;;;;;;15.42;92.39;102051.94;5082159;28;20139;-62
2023/09/25 08:03:23;;;;;;;8.85;5.97;;;;;;;15.65;90.23;102048.00;5078465;28;20150;-61
2023/09/25 08:05:53;;;;;;;7.18;5.32;;;;;;;15.91;89.55;102054.47;5087086;28;20047;-61
2023/09/25 08:08:20;;;;;;;11.48;6.35;;;;;;;16.16;88.34;102051.19;5084451;28;20050;-61
2023/09/25 08:10:47;;;;;;;10.70;5.35;;;;;;;16.11;85.91;102062.09;5083914;28;20071;-61
2023/09/25 08:13:17;;;;;;;15.20;6.05;;;;;;;16.11;86.22;102056.78;5076805;28;20052;-61
2023/09/25 08:15:45;;;;;;;9.52;5.40;;;;;;;16.38;85.91;102056.06;5085536;28;20452;-61
2023/09/25 08:18:14;;;;;;;12.75;5.32;;;;;;;16.44;84.29;102058.38;5085926;28;20047;-62
2023/09/25 08:20:42;;;;;;;10.13;5.50;;;;;;;16.32;84.60;102053.81;5066108;28;20070;-62
2023/09/25 08:23:10;;;;;;;8.27;5.35;;;;;;;16.33;84.36;102059.00;5081803;28;20044;-62
2023/09/25 08:25:37;;;;;;;7.55;5.50;;;;;;;16.31;84.23;102063.59;5079954;28;20127;-62
2023/09/25 08:28:04;;;;;;;9.88;4.75;;;;;;;16.40;84.87;102067.50;5076960;28;20486;-62
2023/09/25 08:30:32;;;;;;;7.00;4.55;;;;;;;16.62;83.98;102062.56;5082784;28;20146;-63
2023/09/25 08:32:59;;;;;;;8.60;4.50;;;;;;;16.70;81.83;102070.91;5067529;28;20321;-63
2023/09/25 08:35:27;;;;;;;5.88;4.15;;;;;;;16.82;81.70;102066.69;5085459;28;20059;-62
2023/09/25 08:37:54;;;;;;;11.38;4.47;;;;;;;17.07;80.48;102062.50;5082688;28;20144;-62
2023/09/25 08:40:21;;;;;;;7.47;4.20;;;;;;;17.10;79.26;102051.63;5085565;28;20579;-61
2023/09/25 08:42:51;;;;;;;8.77;4.05;;;;;;;17.26;78.03;102057.69;5082587;28;20171;-62
2023/09/25 08:45:35;;;;;;;9.50;4.10;;;;;;;17.29;77.72;102051.31;5080216;28;20048;-62
2023/09/25 08:48:03;;;;;;;5.93;3.92;;;;;;;17.44;77.14;102060.97;5080373;28;20052;-64
2023/09/25 08:50:32;;;;;;;9.70;4.30;;;;;;;17.53;76.93;102064.84;5082189;28;20443;-63
2023/09/25 08:52:59;;;;;;;13.25;4.22;;;;;;;17.72;75.64;102066.19;5064944;28;20211;-62
2023/09/25 08:55:27;;;;;;;7.68;3.67;;;;;;;18.02;75.33;102067.81;5080727;28;20071;-64
2023/09/25 08:57:55;;;;;;;6.78;4.15;;;;;;;18.25;74.49;102073.41;5059917;28;20048;-62
2023/09/25 09:00:24;;;;;;;5.43;3.33;;;;;;;18.46;73.28;102067.44;5080740;28;20032;-60
2023/09/25 09:02:51;;;;;;;6.38;3.90;;;;;;;18.32;70.81;102066.66;5070435;28;20047;-61
2023/09/25 09:05:18;;;;;;;6.68;4.03;;;;;;;18.15;71.52;102062.50;5081006;28;20550;-60
2023/09/25 09:08:16;;;;;;;7.28;3.55;;;;;;;18.43;71.11;102058.78;5079090;28;20171;-62
2023/09/25 09:10:43;;;;;;;6.68;3.60;;;;;;;18.53;69.74;102053.66;5042847;28;20053;-62
2023/09/25 09:13:10;;;;;;;4.95;3.33;;;;;;;18.67;69.87;102053.56;5076587;28;20565;-62
2023/09/25 09:15:39;;;;;;;8.73;3.42;;;;;;;18.97;69.43;102056.75;5081260;28;20504;-59
2023/09/25 09:18:21;;;;;;;5.38;2.80;;;;;;;19.25;68.42;102049.41;5059410;28;21325;-62
2023/09/25 09:20:54;;;;;;;8.32;3.55;;;;;;;19.41;66.95;102054.50;5072345;28;20053;-62
2023/09/25 09:23:38;;;;;;;6.07;2.92;;;;;;;19.47;67.11;102054.03;5077891;28;20044;-61
2023/09/25 09:26:07;;;;;;;6.95;3.40;;;;;;;19.55;65.82;102045.47;5086675;28;20058;-61
2023/09/25 09:28:34;;;;;;;5.50;3.00;;;;;;;19.67;65.61;102044.56;5081889;28;20048;-61
2023/09/25 09:31:05;;;;;;;12.10;3.72;;;;;;;19.70;65.33;102050.53;5084369;28;20567;-60
2023/09/25 09:33:32;;;;;;;5.72;3.03;;;;;;;19.80;64.44;102049.84;5084354;28;20138;-63
2023/09/25 09:35:59;;;;;;;9.40;4.07;;;;;;;19.61;64.02;102045.03;5059181;28;20052;-61
2023/09/25 09:38:27;;;;;;;7.28;3.58;;;;;;;19.70;63.54;102033.66;5063948;28;20052;-61
2023/09/25 09:40:54;;;;;;;5.07;3.83;;;;;;;19.72;63.47;102045.06;5064524;28;20094;-61
2023/09/25 09:43:23;;;;;;;6.30;3.33;;;;;;;19.86;62.79;102036.88;5066917;28;20143;-62
2023/09/25 09:45:50;;;;;;;4.82;3.20;;;;;;;20.02;62.25;102036.56;5080833;28;20508;-63
2023/09/25 09:48:19;;;;;;;8.52;3.40;;;;;;;20.14;62.01;102032.94;5085513;28;20070;-62
2023/09/25 09:50:49;;;;;;;6.63;4.35;;;;;;;20.18;61.03;102028.22;5083315;28;20054;-61
2023/09/25 09:53:17;;;;;;;7.40;4.10;;;;;;;20.22;61.05;102022.50;5084166;28;20677;-61
2023/09/25 09:55:45;;;;;;;4.70;3.08;;;;;;;20.46;61.04;102022.41;5079929;28;20811;-61
2023/09/25 09:58:12;;;;;;;4.78;3.38;;;;;;;20.67;60.08;102019.91;5063215;28;20106;-62
2023/09/25 10:00:39;;;;;;;7.63;3.67;;;;;;;20.84;60.16;102020.38;5059026;28;20058;-60
2023/09/25 10:03:10;;;;;;;5.80;2.92;;;;;;;21.12;59.17;102017.19;5077896;28;20076;-61
2023/09/25 10:05:45;;;;;;;8.38;3.80;;;;;;;21.21;57.51;102027.13;5067675;28;20066;-61
2023/09/25 10:08:12;;;;;;;5.80;3.30;;;;;;;21.35;57.26;102018.00;5080659;28;20044;-61
2023/09/25 10:10:43;;;;;;;4.90;3.22;;;;;;;21.41;56.94;102009.44;5082209;28;20071;-62
2023/09/25 10:13:21;;;;;;;6.55;3.15;;;;;;;21.52;55.89;102019.25;5083101;28;20048;-61
2023/09/25 10:15:58;;;;;;;7.68;3.22;;;;;;;21.61;55.44;102010.44;5083358;28;20072;-60
2023/09/25 10:18:26;;;;;;;4.97;3.08;;;;;;;21.72;54.60;102010.41;5084794;28;20036;-61
2023/09/25 10:21:09;;;;;;;5.22;2.65;;;;;;;21.92;54.26;102013.22;5080818;28;20048;-62
2023/09/25 10:23:42;;;;;;;5.47;2.90;;;;;;;22.24;54.70;102014.06;5078057;28;20060;-61
2023/09/25 10:26:16;;;;;;;7.55;3.20;;;;;;;22.32;53.57;102015.19;5080738;28;20062;-63
2023/09/25 10:28:44;;;;;;;4.85;3.42;;;;;;;22.41;53.15;102020.63;5080019;28;20162;-60
2023/09/25 10:31:21;;;;;;;7.50;2.72;;;;;;;22.57;52.18;102016.59;5086842;28;20050;-62
2023/09/25 10:33:59;;;;;;;3.90;2.58;;;;;;;22.69;51.84;102002.94;5089099;28;20060;-62
2023/09/25 10:36:44;;;;;;;9.25;2.70;;;;;;;22.78;50.98;102001.25;5088309;28;20139;-61
2023/09/25 10:39:15;;;;;;;3.83;2.28;;;;;;;22.79;49.79;102015.56;5087033;28;20143;-62
2023/09/25 10:41:45;;;;;;;6.50;2.53;;;;;;;22.65;49.77;102006.03;5069990;28;20063;-62
2023/09/25 10:44:13;;;;;;;6.65;2.35;;;;;;;22.62;49.72;102007.16;5082012;28;20083;-62
2023/09/25 10:46:40;;;;;;;4.97;2.75;;;;;;;22.87;50.08;101997.75;5077673;28;20143;-61
2023/09/25 10:49:11;;;;;;;5.45;2.80;;;;;;;23.04;48.39;101990.06;5061164;28;20044;-61
2023/09/25 10:51:38;;;;;;;5.18;2.22;;;;;;;23.16;48.25;101983.59;5081998;28;20159;-62
2023/09/25 10:54:06;;;;;;;3.72;2.17;;;;;;;23.29;48.20;101978.81;5088078;28;20391;-62
2023/09/25 10:56:33;;;;;;;7.45;2.53;;;;;;;23.75;47.96;101979.94;5085900;28;20086;-61
2023/09/25 10:59:01;;;;;;;4.50;2.05;;;;;;;23.82;46.29;101982.91;5086017;28;20154;-61
2023/09/25 11:01:30;;;;;;;4.18;2.05;;;;;;;24.01;46.33;101980.19;5086103;28;20090;-61
2023/09/25 11:03:59;;;;;;;8.65;2.60;;;;;;;24.19;45.88;101978.44;5079934;28;20341;-61
2023/09/25 11:06:27;;;;;;;2.90;2.20;;;;;;;23.98;45.26;101980.47;5089749;28;20521;-62
2023/09/25 11:09:06;;;;;;;4.13;2.17;;;;;;;24.13;45.45;101970.09;5068998;28;20074;-61
2023/09/25 11:11:33;;;;;;;3.20;1.90;;;;;;;24.24;44.73;101968.06;5085731;28;20476;-61
2023/09/25 11:14:01;;;;;;;6.10;2.30;;;;;;;24.28;44.51;101967.78;5077293;28;20048;-61
2023/09/25 11:16:28;;;;;;;3.92;2.20;;;;;;;24.24;45.05;101970.78;5063557;28;20048;-63
2023/09/25 11:19:10;;;;;;;3.53;2.28;;;;;;;24.41;45.07;101971.88;5085745;28;20145;-62
2023/09/25 11:21:39;;;;;;;5.55;2.58;;;;;;;23.96;44.74;101966.34;5083154;28;20054;-61
2023/09/25 11:24:08;;;;;;;3.80;2.45;;;;;;;24.28;43.94;101957.03;5080186;28;20214;-62